sensor_id;sensor_type;location;lat;lon;timestamp;P1;durP1;ratioP1;P2;durP2;ratioP2
29362;SDS011;16349;53.672;10.014;2023-07-08T00:01:57;4.53;;;3.50;;
29362;SDS011;16349;53.672;10.014;2023-07-08T00:04:24;4.03;;;3.53;;
29362;SDS011;16349;53.672;10.014;2023-07-08T00:06:53;5.47;;;3.20;;
29362;SDS011;16349;53.672;10.014;2023-07-08T00:09:20;3.80;;;3.50;;
29362;SDS011;16349;53.672;10.014;2023-07-08T00:11:47;4.00;;;3.23;;
29362;SDS011;16349;53.672;10.014;2023-07-08T00:14:13;4.17;;;3.37;;
29362;SDS011;16349;53.672;10.014;2023-07-08T00:16:40;4.63;;;3.80;;
29362;SDS011;16349;53.672;10.014;2023-07-08T00:19:08;4.10;;;3.80;;
29362;SDS011;16349;53.672;10.014;2023-07-08T00:21:35;5.53;;;3.90;;
29362;SDS011;16349;53.672;10.014;2023-07-08T00:24:04;5.40;;;3.80;;
29362;SDS011;16349;53.672;10.014;2023-07-08T00:26:31;4.07;;;3.77;;
29362;SDS011;16349;53.672;10.014;2023-07-08T00:28:59;3.93;;;3.43;;
29362;SDS011;16349;53.672;10.014;2023-07-08T00:31:26;4.20;;;3.47;;
29362;SDS011;16349;53.672;10.014;2023-07-08T00:33:53;4.37;;;3.97;;
29362;SDS011;16349;53.672;10.014;2023-07-08T00:36:22;5.80;;;3.83;;
29362;SDS011;16349;53.672;10.014;2023-07-08T00:38:49;5.03;;;3.90;;
29362;SDS011;16349;53.672;10.014;2023-07-08T00:41:18;5.83;;;4.17;;
29362;SDS011;16349;53.672;10.014;2023-07-08T00:43:49;4.33;;;3.77;;
29362;SDS011;16349;53.672;10.014;2023-07-08T00:46:24;6.00;;;4.73;;
29362;SDS011;16349;53.672;10.014;2023-07-08T00:48:59;6.50;;;4.40;;
29362;SDS011;16349;53.672;10.014;2023-07-08T00:51:29;6.43;;;4.00;;
29362;SDS011;16349;53.672;10.014;2023-07-08T00:53:56;4.83;;;4.10;;
29362;SDS011;16349;53.672;10.014;2023-07-08T00:56:24;6.87;;;3.90;;
29362;SDS011;16349;53.672;10.014;2023-07-08T00:58:59;5.00;;;3.73;;
29362;SDS011;16349;53.672;10.014;2023-07-08T01:01:31;5.00;;;3.90;;
29362;SDS011;16349;53.672;10.014;2023-07-08T01:04:01;4.43;;;4.00;;
29362;SDS011;16349;53.672;10.014;2023-07-08T01:06:33;5.73;;;4.27;;
29362;SDS011;16349;53.672;10.014;2023-07-08T01:09:05;6.37;;;4.43;;
29362;SDS011;16349;53.672;10.014;2023-07-08T01:11:36;4.67;;;3.73;;
29362;SDS011;16349;53.672;10.014;2023-07-08T01:14:05;4.23;;;3.90;;
29362;SDS011;16349;53.672;10.014;2023-07-08T01:16:35;6.03;;;4.00;;
29362;SDS011;16349;53.672;10.014;2023-07-08T01:19:04;6.63;;;3.70;;
29362;SDS011;16349;53.672;10.014;2023-07-08T01:21:33;9.07;;;6.23;;
29362;SDS011;16349;53.672;10.014;2023-07-08T01:24:03;6.93;;;4.37;;
29362;SDS011;16349;53.672;10.014;2023-07-08T01:26:33;5.40;;;4.40;;
29362;SDS011;16349;53.672;10.014;2023-07-08T01:29:03;6.10;;;4.27;;
29362;SDS011;16349;53.672;10.014;2023-07-08T01:31:32;8.90;;;4.30;;
29362;SDS011;16349;53.672;10.014;2023-07-08T01:33:59;6.13;;;4.10;;
29362;SDS011;16349;53.672;10.014;2023-07-08T01:36:26;3.97;;;3.67;;
29362;SDS011;16349;53.672;10.014;2023-07-08T01:38:57;4.40;;;3.90;;
29362;SDS011;16349;53.672;10.014;2023-07-08T01:41:25;6.03;;;3.73;;
29362;SDS011;16349;53.672;10.014;2023-07-08T01:43:53;4.53;;;4.13;;
29362;SDS011;16349;53.672;10.014;2023-07-08T01:46:20;4.97;;;4.53;;
29362;SDS011;16349;53.672;10.014;2023-07-08T01:48:53;5.43;;;4.93;;
29362;SDS011;16349;53.672;10.014;2023-07-08T01:51:23;6.93;;;4.23;;
29362;SDS011;16349;53.672;10.014;2023-07-08T01:53:51;6.70;;;4.60;;
29362;SDS011;16349;53.672;10.014;2023-07-08T01:56:18;4.90;;;4.30;;
29362;SDS011;16349;53.672;10.014;2023-07-08T01:58:47;6.30;;;4.50;;
29362;SDS011;16349;53.672;10.014;2023-07-08T02:01:14;4.63;;;4.23;;
29362;SDS011;16349;53.672;10.014;2023-07-08T02:03:40;5.43;;;4.37;;
29362;SDS011;16349;53.672;10.014;2023-07-08T02:06:07;4.70;;;4.30;;
29362;SDS011;16349;53.672;10.014;2023-07-08T02:08:34;5.70;;;4.47;;
29362;SDS011;16349;53.672;10.014;2023-07-08T02:11:01;5.00;;;4.30;;
29362;SDS011;16349;53.672;10.014;2023-07-08T02:13:29;5.73;;;3.83;;
29362;SDS011;16349;53.672;10.014;2023-07-08T02:15:57;4.80;;;4.03;;
29362;SDS011;16349;53.672;10.014;2023-07-08T02:18:25;5.67;;;3.97;;
29362;SDS011;16349;53.672;10.014;2023-07-08T02:20:52;4.37;;;3.53;;
29362;SDS011;16349;53.672;10.014;2023-07-08T02:23:20;7.40;;;4.40;;
29362;SDS011;16349;53.672;10.014;2023-07-08T02:25:50;5.07;;;4.37;;
29362;SDS011;16349;53.672;10.014;2023-07-08T02:28:18;4.33;;;3.93;;
29362;SDS011;16349;53.672;10.014;2023-07-08T02:30:45;4.50;;;4.10;;
29362;SDS011;16349;53.672;10.014;2023-07-08T02:33:13;4.47;;;4.07;;
29362;SDS011;16349;53.672;10.014;2023-07-08T02:35:42;5.20;;;4.30;;
29362;SDS011;16349;53.672;10.014;2023-07-08T02:38:11;6.40;;;4.23;;
29362;SDS011;16349;53.672;10.014;2023-07-08T02:40:39;6.53;;;4.30;;
29362;SDS011;16349;53.672;10.014;2023-07-08T02:43:06;4.50;;;4.10;;
29362;SDS011;16349;53.672;10.014;2023-07-08T02:45:33;8.73;;;4.17;;
29362;SDS011;16349;53.672;10.014;2023-07-08T02:48:00;4.73;;;4.33;;
29362;SDS011;16349;53.672;10.014;2023-07-08T02:50:28;5.57;;;4.30;;
29362;SDS011;16349;53.672;10.014;2023-07-08T02:52:55;7.10;;;4.40;;
29362;SDS011;16349;53.672;10.014;2023-07-08T02:55:22;6.83;;;4.60;;
29362;SDS011;16349;53.672;10.014;2023-07-08T02:57:48;5.27;;;4.87;;
29362;SDS011;16349;53.672;10.014;2023-07-08T03:00:15;8.30;;;5.00;;
29362;SDS011;16349;53.672;10.014;2023-07-08T03:02:42;7.67;;;5.10;;
29362;SDS011;16349;53.672;10.014;2023-07-08T03:05:10;5.40;;;4.90;;
29362;SDS011;16349;53.672;10.014;2023-07-08T03:07:38;6.57;;;4.67;;
29362;SDS011;16349;53.672;10.014;2023-07-08T03:10:05;6.50;;;4.90;;
29362;SDS011;16349;53.672;10.014;2023-07-08T03:12:32;5.60;;;5.00;;
29362;SDS011;16349;53.672;10.014;2023-07-08T03:14:59;5.00;;;4.40;;
29362;SDS011;16349;53.672;10.014;2023-07-08T03:17:26;5.03;;;4.53;;
29362;SDS011;16349;53.672;10.014;2023-07-08T03:19:53;6.27;;;4.43;;
29362;SDS011;16349;53.672;10.014;2023-07-08T03:22:20;5.67;;;4.17;;
29362;SDS011;16349;53.672;10.014;2023-07-08T03:24:48;7.73;;;5.17;;
29362;SDS011;16349;53.672;10.014;2023-07-08T03:27:18;5.43;;;4.87;;
29362;SDS011;16349;53.672;10.014;2023-07-08T03:29:48;5.80;;;5.03;;
29362;SDS011;16349;53.672;10.014;2023-07-08T03:32:15;5.40;;;4.90;;
29362;SDS011;16349;53.672;10.014;2023-07-08T03:34:41;4.97;;;4.57;;
29362;SDS011;16349;53.672;10.014;2023-07-08T03:37:11;5.70;;;4.87;;
29362;SDS011;16349;53.672;10.014;2023-07-08T03:39:37;5.23;;;4.83;;
29362;SDS011;16349;53.672;10.014;2023-07-08T03:42:06;5.57;;;5.03;;
29362;SDS011;16349;53.672;10.014;2023-07-08T03:44:33;6.53;;;5.63;;
29362;SDS011;16349;53.672;10.014;2023-07-08T03:47:00;4.63;;;4.20;;
29362;SDS011;16349;53.672;10.014;2023-07-08T03:49:27;5.30;;;4.70;;
29362;SDS011;16349;53.672;10.014;2023-07-08T03:51:55;4.70;;;4.30;;
29362;SDS011;16349;53.672;10.014;2023-07-08T03:54:22;5.40;;;4.27;;
29362;SDS011;16349;53.672;10.014;2023-07-08T03:56:52;5.80;;;4.50;;
29362;SDS011;16349;53.672;10.014;2023-07-08T03:59:22;4.73;;;4.33;;
29362;SDS011;16349;53.672;10.014;2023-07-08T04:01:49;6.20;;;4.60;;
29362;SDS011;16349;53.672;10.014;2023-07-08T04:04:16;5.80;;;4.57;;
29362;SDS011;16349;53.672;10.014;2023-07-08T04:06:43;5.20;;;4.57;;
29362;SDS011;16349;53.672;10.014;2023-07-08T04:09:11;5.70;;;4.40;;
29362;SDS011;16349;53.672;10.014;2023-07-08T04:11:38;7.20;;;4.90;;
29362;SDS011;16349;53.672;10.014;2023-07-08T04:14:05;8.27;;;5.10;;
29362;SDS011;16349;53.672;10.014;2023-07-08T04:16:41;5.97;;;4.73;;
29362;SDS011;16349;53.672;10.014;2023-07-08T04:19:11;4.47;;;3.83;;
29362;SDS011;16349;53.672;10.014;2023-07-08T04:21:40;8.67;;;4.63;;
29362;SDS011;16349;53.672;10.014;2023-07-08T04:24:08;5.93;;;4.47;;
29362;SDS011;16349;53.672;10.014;2023-07-08T04:26:36;5.17;;;4.20;;
29362;SDS011;16349;53.672;10.014;2023-07-08T04:29:05;4.63;;;3.97;;
29362;SDS011;16349;53.672;10.014;2023-07-08T04:31:33;4.53;;;3.77;;
29362;SDS011;16349;53.672;10.014;2023-07-08T04:34:01;6.43;;;3.90;;
29362;SDS011;16349;53.672;10.014;2023-07-08T04:36:28;4.27;;;3.47;;
29362;SDS011;16349;53.672;10.014;2023-07-08T04:38:55;5.33;;;4.40;;
29362;SDS011;16349;53.672;10.014;2023-07-08T04:41:23;5.20;;;3.90;;
29362;SDS011;16349;53.672;10.014;2023-07-08T04:43:50;4.20;;;3.87;;
29362;SDS011;16349;53.672;10.014;2023-07-08T04:46:19;5.00;;;3.67;;
29362;SDS011;16349;53.672;10.014;2023-07-08T04:48:53;3.97;;;3.63;;
29362;SDS011;16349;53.672;10.014;2023-07-08T04:51:22;3.87;;;3.50;;
29362;SDS011;16349;53.672;10.014;2023-07-08T04:53:49;4.73;;;3.67;;
29362;SDS011;16349;53.672;10.014;2023-07-08T04:56:16;6.13;;;3.70;;
29362;SDS011;16349;53.672;10.014;2023-07-08T04:58:44;3.97;;;3.67;;
29362;SDS011;16349;53.672;10.014;2023-07-08T05:01:11;5.53;;;4.00;;
29362;SDS011;16349;53.672;10.014;2023-07-08T05:03:38;12.00;;;3.77;;
29362;SDS011;16349;53.672;10.014;2023-07-08T05:06:05;6.13;;;3.90;;
29362;SDS011;16349;53.672;10.014;2023-07-08T05:08:33;4.33;;;3.20;;
29362;SDS011;16349;53.672;10.014;2023-07-08T05:10:59;6.13;;;3.60;;
29362;SDS011;16349;53.672;10.014;2023-07-08T05:13:26;4.53;;;3.50;;
29362;SDS011;16349;53.672;10.014;2023-07-08T05:15:53;4.80;;;3.40;;
29362;SDS011;16349;53.672;10.014;2023-07-08T05:18:20;4.60;;;3.90;;
29362;SDS011;16349;53.672;10.014;2023-07-08T05:20:49;4.03;;;3.70;;
29362;SDS011;16349;53.672;10.014;2023-07-08T05:23:17;4.07;;;3.23;;
29362;SDS011;16349;53.672;10.014;2023-07-08T05:25:45;4.10;;;3.70;;
29362;SDS011;16349;53.672;10.014;2023-07-08T05:28:12;4.30;;;3.50;;
29362;SDS011;16349;53.672;10.014;2023-07-08T05:30:39;3.90;;;3.50;;
29362;SDS011;16349;53.672;10.014;2023-07-08T05:33:06;3.70;;;3.40;;
29362;SDS011;16349;53.672;10.014;2023-07-08T05:35:34;4.47;;;4.07;;
29362;SDS011;16349;53.672;10.014;2023-07-08T05:38:01;4.57;;;3.33;;
29362;SDS011;16349;53.672;10.014;2023-07-08T05:40:27;3.50;;;3.30;;
29362;SDS011;16349;53.672;10.014;2023-07-08T05:42:56;3.60;;;3.30;;
29362;SDS011;16349;53.672;10.014;2023-07-08T05:45:22;5.33;;;3.30;;
29362;SDS011;16349;53.672;10.014;2023-07-08T05:47:49;4.03;;;3.53;;
29362;SDS011;16349;53.672;10.014;2023-07-08T05:50:16;6.97;;;3.87;;
29362;SDS011;16349;53.672;10.014;2023-07-08T05:52:43;3.13;;;2.93;;
29362;SDS011;16349;53.672;10.014;2023-07-08T05:55:10;4.80;;;3.63;;
29362;SDS011;16349;53.672;10.014;2023-07-08T05:57:37;4.00;;;3.03;;
29362;SDS011;16349;53.672;10.014;2023-07-08T06:00:06;4.03;;;3.20;;
29362;SDS011;16349;53.672;10.014;2023-07-08T06:02:37;3.70;;;2.80;;
29362;SDS011;16349;53.672;10.014;2023-07-08T06:05:04;3.73;;;3.23;;
29362;SDS011;16349;53.672;10.014;2023-07-08T06:07:32;4.50;;;3.30;;
29362;SDS011;16349;53.672;10.014;2023-07-08T06:09:58;3.87;;;3.00;;
29362;SDS011;16349;53.672;10.014;2023-07-08T06:12:25;4.93;;;3.23;;
29362;SDS011;16349;53.672;10.014;2023-07-08T06:14:53;4.47;;;3.07;;
29362;SDS011;16349;53.672;10.014;2023-07-08T06:17:21;3.17;;;2.80;;
29362;SDS011;16349;53.672;10.014;2023-07-08T06:19:48;4.33;;;3.13;;
29362;SDS011;16349;53.672;10.014;2023-07-08T06:22:15;5.57;;;3.03;;
29362;SDS011;16349;53.672;10.014;2023-07-08T06:24:42;7.10;;;2.63;;
29362;SDS011;16349;53.672;10.014;2023-07-08T06:27:09;2.87;;;2.67;;
29362;SDS011;16349;53.672;10.014;2023-07-08T06:29:36;3.00;;;2.80;;
29362;SDS011;16349;53.672;10.014;2023-07-08T06:32:03;3.83;;;2.93;;
29362;SDS011;16349;53.672;10.014;2023-07-08T06:34:32;3.30;;;2.70;;
29362;SDS011;16349;53.672;10.014;2023-07-08T06:36:59;6.50;;;3.03;;
29362;SDS011;16349;53.672;10.014;2023-07-08T06:39:26;4.47;;;2.80;;
29362;SDS011;16349;53.672;10.014;2023-07-08T06:41:53;4.10;;;2.53;;
29362;SDS011;16349;53.672;10.014;2023-07-08T06:44:25;3.30;;;3.00;;
29362;SDS011;16349;53.672;10.014;2023-07-08T06:46:53;3.43;;;3.03;;
29362;SDS011;16349;53.672;10.014;2023-07-08T06:49:21;2.60;;;2.40;;
29362;SDS011;16349;53.672;10.014;2023-07-08T06:51:49;3.90;;;2.67;;
29362;SDS011;16349;53.672;10.014;2023-07-08T06:54:16;3.10;;;2.80;;
29362;SDS011;16349;53.672;10.014;2023-07-08T06:56:43;2.90;;;2.60;;
29362;SDS011;16349;53.672;10.014;2023-07-08T06:59:10;2.73;;;2.30;;
29362;SDS011;16349;53.672;10.014;2023-07-08T07:01:36;3.73;;;2.40;;
29362;SDS011;16349;53.672;10.014;2023-07-08T07:04:03;4.03;;;2.43;;
29362;SDS011;16349;53.672;10.014;2023-07-08T07:06:30;4.40;;;2.57;;
29362;SDS011;16349;53.672;10.014;2023-07-08T07:08:58;2.43;;;2.23;;
29362;SDS011;16349;53.672;10.014;2023-07-08T07:11:25;4.03;;;2.80;;
29362;SDS011;16349;53.672;10.014;2023-07-08T07:13:53;2.57;;;2.37;;
29362;SDS011;16349;53.672;10.014;2023-07-08T07:16:20;4.13;;;2.90;;
29362;SDS011;16349;53.672;10.014;2023-07-08T07:18:47;3.43;;;2.57;;
29362;SDS011;16349;53.672;10.014;2023-07-08T07:21:15;2.50;;;2.30;;
29362;SDS011;16349;53.672;10.014;2023-07-08T07:23:41;4.77;;;2.20;;
29362;SDS011;16349;53.672;10.014;2023-07-08T07:26:10;2.63;;;2.40;;
29362;SDS011;16349;53.672;10.014;2023-07-08T07:28:36;3.47;;;2.00;;
29362;SDS011;16349;53.672;10.014;2023-07-08T07:31:04;2.70;;;2.17;;
29362;SDS011;16349;53.672;10.014;2023-07-08T07:33:32;3.27;;;2.47;;
29362;SDS011;16349;53.672;10.014;2023-07-08T07:36:00;2.30;;;2.10;;
29362;SDS011;16349;53.672;10.014;2023-07-08T07:38:27;4.03;;;2.20;;
29362;SDS011;16349;53.672;10.014;2023-07-08T07:40:54;2.40;;;2.20;;
29362;SDS011;16349;53.672;10.014;2023-07-08T07:43:22;2.23;;;2.00;;
29362;SDS011;16349;53.672;10.014;2023-07-08T07:45:50;5.10;;;2.40;;
29362;SDS011;16349;53.672;10.014;2023-07-08T07:48:17;2.40;;;2.20;;
29362;SDS011;16349;53.672;10.014;2023-07-08T07:50:45;6.30;;;2.20;;
29362;SDS011;16349;53.672;10.014;2023-07-08T07:53:12;4.33;;;2.27;;
29362;SDS011;16349;53.672;10.014;2023-07-08T07:55:39;3.53;;;2.57;;
29362;SDS011;16349;53.672;10.014;2023-07-08T07:58:06;2.97;;;2.30;;
29362;SDS011;16349;53.672;10.014;2023-07-08T08:00:38;2.37;;;2.17;;
29362;SDS011;16349;53.672;10.014;2023-07-08T08:03:04;3.03;;;2.30;;
29362;SDS011;16349;53.672;10.014;2023-07-08T08:05:32;4.67;;;2.20;;
29362;SDS011;16349;53.672;10.014;2023-07-08T08:07:58;3.33;;;2.30;;
29362;SDS011;16349;53.672;10.014;2023-07-08T08:10:25;2.23;;;2.03;;
29362;SDS011;16349;53.672;10.014;2023-07-08T08:12:52;2.30;;;2.10;;
29362;SDS011;16349;53.672;10.014;2023-07-08T08:15:19;3.80;;;2.10;;
29362;SDS011;16349;53.672;10.014;2023-07-08T08:17:49;2.73;;;2.13;;
29362;SDS011;16349;53.672;10.014;2023-07-08T08:20:17;4.95;;;2.58;;
29362;SDS011;16349;53.672;10.014;2023-07-08T08:22:44;2.53;;;2.17;;
29362;SDS011;16349;53.672;10.014;2023-07-08T08:25:11;3.17;;;2.33;;
29362;SDS011;16349;53.672;10.014;2023-07-08T08:27:38;3.45;;;2.25;;
29362;SDS011;16349;53.672;10.014;2023-07-08T08:30:05;2.67;;;2.33;;
29362;SDS011;16349;53.672;10.014;2023-07-08T08:32:33;2.30;;;2.10;;
29362;SDS011;16349;53.672;10.014;2023-07-08T08:35:02;4.55;;;2.08;;
29362;SDS011;16349;53.672;10.014;2023-07-08T08:37:28;3.50;;;1.95;;
29362;SDS011;16349;53.672;10.014;2023-07-08T08:39:55;1.73;;;1.63;;
29362;SDS011;16349;53.672;10.014;2023-07-08T08:42:24;2.97;;;2.20;;
29362;SDS011;16349;53.672;10.014;2023-07-08T08:44:53;2.75;;;1.90;;
29362;SDS011;16349;53.672;10.014;2023-07-08T08:47:25;2.65;;;2.13;;
29362;SDS011;16349;53.672;10.014;2023-07-08T08:50:02;2.25;;;2.05;;
29362;SDS011;16349;53.672;10.014;2023-07-08T08:52:36;3.00;;;1.98;;
29362;SDS011;16349;53.672;10.014;2023-07-08T08:55:08;3.03;;;1.98;;
29362;SDS011;16349;53.672;10.014;2023-07-08T08:57:40;1.95;;;1.85;;
29362;SDS011;16349;53.672;10.014;2023-07-08T09:00:12;2.40;;;2.20;;
29362;SDS011;16349;53.672;10.014;2023-07-08T09:02:48;3.92;;;2.20;;
29362;SDS011;16349;53.672;10.014;2023-07-08T09:05:25;3.05;;;2.30;;
29362;SDS011;16349;53.672;10.014;2023-07-08T09:08:02;3.28;;;2.42;;
29362;SDS011;16349;53.672;10.014;2023-07-08T09:10:37;4.32;;;2.22;;
29362;SDS011;16349;53.672;10.014;2023-07-08T09:13:11;4.00;;;2.28;;
29362;SDS011;16349;53.672;10.014;2023-07-08T09:15:45;9.55;;;2.78;;
29362;SDS011;16349;53.672;10.014;2023-07-08T09:18:15;4.25;;;2.15;;
29362;SDS011;16349;53.672;10.014;2023-07-08T09:20:48;2.65;;;2.00;;
29362;SDS011;16349;53.672;10.014;2023-07-08T09:23:18;3.63;;;2.05;;
29362;SDS011;16349;53.672;10.014;2023-07-08T09:25:49;2.67;;;2.45;;
29362;SDS011;16349;53.672;10.014;2023-07-08T09:28:20;2.60;;;2.15;;
29362;SDS011;16349;53.672;10.014;2023-07-08T09:30:47;3.78;;;2.25;;
29362;SDS011;16349;53.672;10.014;2023-07-08T09:33:18;2.50;;;2.30;;
29362;SDS011;16349;53.672;10.014;2023-07-08T09:35:46;1.92;;;1.83;;
29362;SDS011;16349;53.672;10.014;2023-07-08T09:38:15;2.28;;;2.03;;
29362;SDS011;16349;53.672;10.014;2023-07-08T09:40:44;2.92;;;2.72;;
29362;SDS011;16349;53.672;10.014;2023-07-08T09:43:24;3.38;;;3.17;;
29362;SDS011;16349;53.672;10.014;2023-07-08T09:45:55;3.33;;;2.33;;
29362;SDS011;16349;53.672;10.014;2023-07-08T09:48:25;2.85;;;2.35;;
29362;SDS011;16349;53.672;10.014;2023-07-08T09:50:56;4.63;;;2.25;;
29362;SDS011;16349;53.672;10.014;2023-07-08T09:53:24;5.03;;;2.20;;
29362;SDS011;16349;53.672;10.014;2023-07-08T09:55:52;2.40;;;2.20;;
29362;SDS011;16349;53.672;10.014;2023-07-08T09:58:23;3.90;;;2.13;;
29362;SDS011;16349;53.672;10.014;2023-07-08T10:00:53;4.20;;;2.28;;
29362;SDS011;16349;53.672;10.014;2023-07-08T10:03:22;3.67;;;2.80;;
29362;SDS011;16349;53.672;10.014;2023-07-08T10:05:51;3.97;;;2.05;;
29362;SDS011;16349;53.672;10.014;2023-07-08T10:08:24;2.33;;;2.13;;
29362;SDS011;16349;53.672;10.014;2023-07-08T10:10:55;2.08;;;1.98;;
29362;SDS011;16349;53.672;10.014;2023-07-08T10:13:26;2.22;;;2.03;;
29362;SDS011;16349;53.672;10.014;2023-07-08T10:16:00;2.20;;;2.10;;
29362;SDS011;16349;53.672;10.014;2023-07-08T10:18:38;4.05;;;2.20;;
29362;SDS011;16349;53.672;10.014;2023-07-08T10:21:07;2.95;;;2.30;;
29362;SDS011;16349;53.672;10.014;2023-07-08T10:23:43;2.40;;;2.28;;
29362;SDS011;16349;53.672;10.014;2023-07-08T10:26:17;3.50;;;2.15;;
29362;SDS011;16349;53.672;10.014;2023-07-08T10:28:53;2.65;;;2.10;;
29362;SDS011;16349;53.672;10.014;2023-07-08T10:31:35;2.70;;;2.50;;
29362;SDS011;16349;53.672;10.014;2023-07-08T10:34:21;2.10;;;2.00;;
29362;SDS011;16349;53.672;10.014;2023-07-08T10:36:57;4.22;;;2.50;;
29362;SDS011;16349;53.672;10.014;2023-07-08T10:39:46;3.28;;;2.35;;
29362;SDS011;16349;53.672;10.014;2023-07-08T10:42:25;2.75;;;2.47;;
29362;SDS011;16349;53.672;10.014;2023-07-08T10:45:03;2.38;;;2.15;;
29362;SDS011;16349;53.672;10.014;2023-07-08T10:47:37;3.45;;;2.70;;
29362;SDS011;16349;53.672;10.014;2023-07-08T10:50:13;3.15;;;2.45;;
29362;SDS011;16349;53.672;10.014;2023-07-08T10:52:46;4.15;;;2.40;;
29362;SDS011;16349;53.672;10.014;2023-07-08T10:55:25;3.22;;;2.13;;
29362;SDS011;16349;53.672;10.014;2023-07-08T10:58:02;3.45;;;3.13;;
29362;SDS011;16349;53.672;10.014;2023-07-08T11:00:36;3.15;;;2.50;;
29362;SDS011;16349;53.672;10.014;2023-07-08T11:03:10;3.38;;;2.50;;
29362;SDS011;16349;53.672;10.014;2023-07-08T11:05:44;2.70;;;2.50;;
29362;SDS011;16349;53.672;10.014;2023-07-08T11:08:14;3.10;;;2.20;;
29362;SDS011;16349;53.672;10.014;2023-07-08T11:10:48;2.40;;;2.20;;
29362;SDS011;16349;53.672;10.014;2023-07-08T11:13:19;2.70;;;2.30;;
29362;SDS011;16349;53.672;10.014;2023-07-08T11:15:49;3.10;;;2.53;;
29362;SDS011;16349;53.672;10.014;2023-07-08T11:18:22;4.45;;;2.30;;
29362;SDS011;16349;53.672;10.014;2023-07-08T11:20:57;3.17;;;2.55;;
29362;SDS011;16349;53.672;10.014;2023-07-08T11:23:29;2.35;;;2.25;;
29362;SDS011;16349;53.672;10.014;2023-07-08T11:26:04;5.10;;;2.50;;
29362;SDS011;16349;53.672;10.014;2023-07-08T11:28:37;2.65;;;2.33;;
29362;SDS011;16349;53.672;10.014;2023-07-08T11:31:03;4.28;;;2.42;;
29362;SDS011;16349;53.672;10.014;2023-07-08T11:33:31;3.22;;;2.80;;
29362;SDS011;16349;53.672;10.014;2023-07-08T11:35:59;3.63;;;2.40;;
29362;SDS011;16349;53.672;10.014;2023-07-08T11:38:28;3.65;;;2.70;;
29362;SDS011;16349;53.672;10.014;2023-07-08T11:40:59;3.80;;;2.60;;
29362;SDS011;16349;53.672;10.014;2023-07-08T11:43:42;2.65;;;2.45;;
29362;SDS011;16349;53.672;10.014;2023-07-08T11:46:14;2.45;;;2.25;;
29362;SDS011;16349;53.672;10.014;2023-07-08T11:48:45;2.30;;;2.10;;
29362;SDS011;16349;53.672;10.014;2023-07-08T11:51:16;5.75;;;2.75;;
29362;SDS011;16349;53.672;10.014;2023-07-08T11:53:48;2.40;;;2.20;;
29362;SDS011;16349;53.672;10.014;2023-07-08T11:56:21;9.48;;;3.10;;
29362;SDS011;16349;53.672;10.014;2023-07-08T11:58:52;2.95;;;2.40;;
29362;SDS011;16349;53.672;10.014;2023-07-08T12:01:26;2.72;;;2.35;;
29362;SDS011;16349;53.672;10.014;2023-07-08T12:03:59;2.53;;;2.10;;
29362;SDS011;16349;53.672;10.014;2023-07-08T12:06:43;2.72;;;2.53;;
29362;SDS011;16349;53.672;10.014;2023-07-08T12:09:15;2.60;;;2.40;;
29362;SDS011;16349;53.672;10.014;2023-07-08T12:11:51;3.10;;;2.17;;
29362;SDS011;16349;53.672;10.014;2023-07-08T12:14:22;2.22;;;2.03;;
29362;SDS011;16349;53.672;10.014;2023-07-08T12:16:50;3.75;;;2.25;;
29362;SDS011;16349;53.672;10.014;2023-07-08T12:19:17;3.83;;;2.47;;
29362;SDS011;16349;53.672;10.014;2023-07-08T12:21:47;2.38;;;2.25;;
29362;SDS011;16349;53.672;10.014;2023-07-08T12:24:14;2.90;;;2.70;;
29362;SDS011;16349;53.672;10.014;2023-07-08T12:26:41;2.58;;;2.42;;
29362;SDS011;16349;53.672;10.014;2023-07-08T12:29:10;3.92;;;2.45;;
29362;SDS011;16349;53.672;10.014;2023-07-08T12:31:40;2.60;;;2.40;;
29362;SDS011;16349;53.672;10.014;2023-07-08T12:34:10;2.83;;;2.42;;
29362;SDS011;16349;53.672;10.014;2023-07-08T12:36:40;3.63;;;2.65;;
29362;SDS011;16349;53.672;10.014;2023-07-08T12:39:09;2.60;;;2.40;;
29362;SDS011;16349;53.672;10.014;2023-07-08T12:41:40;2.03;;;1.92;;
29362;SDS011;16349;53.672;10.014;2023-07-08T12:44:08;2.60;;;2.40;;
29362;SDS011;16349;53.672;10.014;2023-07-08T12:46:42;2.30;;;2.20;;
29362;SDS011;16349;53.672;10.014;2023-07-08T12:49:09;2.65;;;2.42;;
29362;SDS011;16349;53.672;10.014;2023-07-08T12:51:36;2.50;;;2.30;;
29362;SDS011;16349;53.672;10.014;2023-07-08T12:54:03;2.40;;;2.30;;
29362;SDS011;16349;53.672;10.014;2023-07-08T12:56:30;2.85;;;2.65;;
29362;SDS011;16349;53.672;10.014;2023-07-08T12:58:57;2.53;;;2.33;;
29362;SDS011;16349;53.672;10.014;2023-07-08T13:01:25;2.85;;;2.15;;
29362;SDS011;16349;53.672;10.014;2023-07-08T13:03:58;3.28;;;2.15;;
29362;SDS011;16349;53.672;10.014;2023-07-08T13:06:28;2.42;;;2.22;;
29362;SDS011;16349;53.672;10.014;2023-07-08T13:08:57;2.90;;;2.70;;
29362;SDS011;16349;53.672;10.014;2023-07-08T13:11:29;2.80;;;2.42;;
29362;SDS011;16349;53.672;10.014;2023-07-08T13:13:56;2.30;;;2.20;;
29362;SDS011;16349;53.672;10.014;2023-07-08T13:16:28;2.05;;;1.95;;
29362;SDS011;16349;53.672;10.014;2023-07-08T13:19:00;2.22;;;2.13;;
29362;SDS011;16349;53.672;10.014;2023-07-08T13:21:27;5.93;;;2.65;;
29362;SDS011;16349;53.672;10.014;2023-07-08T13:23:55;2.50;;;2.28;;
29362;SDS011;16349;53.672;10.014;2023-07-08T13:26:23;2.88;;;2.40;;
29362;SDS011;16349;53.672;10.014;2023-07-08T13:28:59;3.35;;;2.53;;
29362;SDS011;16349;53.672;10.014;2023-07-08T13:31:31;3.15;;;2.38;;
29362;SDS011;16349;53.672;10.014;2023-07-08T13:34:05;2.65;;;2.45;;
29362;SDS011;16349;53.672;10.014;2023-07-08T13:36:35;2.38;;;2.20;;
29362;SDS011;16349;53.672;10.014;2023-07-08T13:39:04;2.85;;;2.58;;
29362;SDS011;16349;53.672;10.014;2023-07-08T13:41:33;2.60;;;2.38;;
29362;SDS011;16349;53.672;10.014;2023-07-08T13:44:04;2.42;;;2.22;;
29362;SDS011;16349;53.672;10.014;2023-07-08T13:46:34;3.90;;;2.45;;
29362;SDS011;16349;53.672;10.014;2023-07-08T13:49:09;2.53;;;2.33;;
29362;SDS011;16349;53.672;10.014;2023-07-08T13:51:38;2.78;;;2.30;;
29362;SDS011;16349;53.672;10.014;2023-07-08T13:54:12;2.40;;;2.20;;
29362;SDS011;16349;53.672;10.014;2023-07-08T13:56:42;3.58;;;2.85;;
29362;SDS011;16349;53.672;10.014;2023-07-08T13:59:10;2.40;;;2.25;;
29362;SDS011;16349;53.672;10.014;2023-07-08T14:01:42;2.70;;;2.50;;
29362;SDS011;16349;53.672;10.014;2023-07-08T14:04:11;2.75;;;2.55;;
29362;SDS011;16349;53.672;10.014;2023-07-08T14:06:40;2.15;;;2.05;;
29362;SDS011;16349;53.672;10.014;2023-07-08T14:09:10;2.60;;;2.40;;
29362;SDS011;16349;53.672;10.014;2023-07-08T14:11:39;4.65;;;2.58;;
29362;SDS011;16349;53.672;10.014;2023-07-08T14:14:06;2.30;;;2.13;;
29362;SDS011;16349;53.672;10.014;2023-07-08T14:16:35;2.60;;;2.40;;
29362;SDS011;16349;53.672;10.014;2023-07-08T14:19:05;3.00;;;2.80;;
29362;SDS011;16349;53.672;10.014;2023-07-08T14:21:37;2.63;;;2.33;;
29362;SDS011;16349;53.672;10.014;2023-07-08T14:24:08;2.78;;;2.42;;
29362;SDS011;16349;53.672;10.014;2023-07-08T14:26:38;2.65;;;2.05;;
29362;SDS011;16349;53.672;10.014;2023-07-08T14:29:06;5.32;;;2.80;;
29362;SDS011;16349;53.672;10.014;2023-07-08T14:31:33;1.98;;;1.88;;
29362;SDS011;16349;53.672;10.014;2023-07-08T14:34:02;8.73;;;2.75;;
29362;SDS011;16349;53.672;10.014;2023-07-08T14:36:31;5.40;;;3.20;;
29362;SDS011;16349;53.672;10.014;2023-07-08T14:38:59;3.17;;;2.33;;
29362;SDS011;16349;53.672;10.014;2023-07-08T14:41:27;3.08;;;2.50;;
29362;SDS011;16349;53.672;10.014;2023-07-08T14:43:54;2.67;;;2.47;;
29362;SDS011;16349;53.672;10.014;2023-07-08T14:46:21;2.45;;;2.17;;